sensor_id;sensor_type;location;lat;lon;timestamp;pressure;altitude;pressure_sealevel;temperature;humidity
49813;BME280;35706;52.100;5.056;2022-11-12T00:00:45;103209.63;;;9.32;88.80
49813;BME280;35706;52.100;5.056;2022-11-12T00:01:46;103207.44;;;9.42;88.14
49813;BME280;35706;52.100;5.056;2022-11-12T00:02:46;103207.06;;;9.50;87.97
49813;BME280;35706;52.100;5.056;2022-11-12T00:03:49;103203.25;;;9.38;88.19
49813;BME280;35706;52.100;5.056;2022-11-12T00:04:49;103208.41;;;9.40;87.98
49813;BME280;35706;52.100;5.056;2022-11-12T00:05:50;103214.88;;;9.32;88.38
49813;BME280;35706;52.100;5.056;2022-11-12T00:06:50;103211.72;;;9.24;88.88
49813;BME280;35706;52.100;5.056;2022-11-12T00:07:50;103212.78;;;9.20;89.00
49813;BME280;35706;52.100;5.056;2022-11-12T00:08:51;103211.38;;;9.13;89.10
49813;BME280;35706;52.100;5.056;2022-11-12T00:09:53;103212.22;;;9.13;89.30
49813;BME280;35706;52.100;5.056;2022-11-12T00:10:53;103216.47;;;9.16;89.46
49813;BME280;35706;52.100;5.056;2022-11-12T00:11:54;103210.81;;;9.25;88.63
49813;BME280;35706;52.100;5.056;2022-11-12T00:12:54;103199.41;;;9.26;88.61
49813;BME280;35706;52.100;5.056;2022-11-12T00:13:54;103200.84;;;9.33;88.39
49813;BME280;35706;52.100;5.056;2022-11-12T00:15:09;103198.81;;;9.20;88.92
49813;BME280;35706;52.100;5.056;2022-11-12T00:16:09;103201.81;;;9.31;88.62
49813;BME280;35706;52.100;5.056;2022-11-12T00:17:12;103207.22;;;9.28;88.83
49813;BME280;35706;52.100;5.056;2022-11-12T00:18:13;103214.28;;;9.26;88.91
49813;BME280;35706;52.100;5.056;2022-11-12T00:19:13;103214.28;;;9.26;88.87
49813;BME280;35706;52.100;5.056;2022-11-12T00:20:13;103212.44;;;9.28;88.73
49813;BME280;35706;52.100;5.056;2022-11-12T00:21:14;103208.97;;;9.27;88.66
49813;BME280;35706;52.100;5.056;2022-11-12T00:22:14;103208.06;;;9.28;88.46
49813;BME280;35706;52.100;5.056;2022-11-12T00:23:14;103218.31;;;9.14;89.24
49813;BME280;35706;52.100;5.056;2022-11-12T00:24:15;103217.72;;;9.07;90.03
49813;BME280;35706;52.100;5.056;2022-11-12T00:25:15;103215.59;;;8.96;90.37
49813;BME280;35706;52.100;5.056;2022-11-12T00:26:15;103210.00;;;9.04;90.48
49813;BME280;35706;52.100;5.056;2022-11-12T00:27:16;103216.09;;;9.05;90.25
49813;BME280;35706;52.100;5.056;2022-11-12T00:28:16;103206.88;;;8.75;91.33
49813;BME280;35706;52.100;5.056;2022-11-12T00:29:17;103213.38;;;8.67;92.29
49813;BME280;35706;52.100;5.056;2022-11-12T00:30:17;103209.13;;;8.85;91.44
49813;BME280;35706;52.100;5.056;2022-11-12T00:31:17;103211.53;;;8.89;91.45
49813;BME280;35706;52.100;5.056;2022-11-12T00:32:18;103210.66;;;8.89;91.47
49813;BME280;35706;52.100;5.056;2022-11-12T00:33:19;103215.59;;;8.96;91.06
49813;BME280;35706;52.100;5.056;2022-11-12T00:34:19;103216.16;;;9.03;90.72
49813;BME280;35706;52.100;5.056;2022-11-12T00:35:19;103211.50;;;9.10;90.66
49813;BME280;35706;52.100;5.056;2022-11-12T00:36:22;103211.09;;;9.19;89.94
49813;BME280;35706;52.100;5.056;2022-11-12T00:37:23;103203.59;;;9.30;89.62
49813;BME280;35706;52.100;5.056;2022-11-12T00:38:24;103203.53;;;9.32;88.82
49813;BME280;35706;52.100;5.056;2022-11-12T00:39:24;103203.31;;;9.36;88.40
49813;BME280;35706;52.100;5.056;2022-11-12T00:40:25;103208.56;;;9.36;88.19
49813;BME280;35706;52.100;5.056;2022-11-12T00:41:25;103212.00;;;9.18;89.13
49813;BME280;35706;52.100;5.056;2022-11-12T00:42:25;103207.22;;;9.28;88.42
49813;BME280;35706;52.100;5.056;2022-11-12T00:43:26;103205.22;;;9.33;88.40
49813;BME280;35706;52.100;5.056;2022-11-12T00:44:26;103204.09;;;9.38;87.96
49813;BME280;35706;52.100;5.056;2022-11-12T00:45:28;103200.97;;;9.30;88.39
49813;BME280;35706;52.100;5.056;2022-11-12T00:46:29;103198.22;;;9.33;88.13
49813;BME280;35706;52.100;5.056;2022-11-12T00:47:29;103211.72;;;9.24;88.62
49813;BME280;35706;52.100;5.056;2022-11-12T00:48:30;103201.13;;;9.27;88.37
49813;BME280;35706;52.100;5.056;2022-11-12T00:49:30;103207.53;;;9.20;88.75
49813;BME280;35706;52.100;5.056;2022-11-12T00:50:30;103205.00;;;9.19;88.65
49813;BME280;35706;52.100;5.056;2022-11-12T00:51:31;103202.06;;;9.06;89.22
49813;BME280;35706;52.100;5.056;2022-11-12T00:52:31;103205.63;;;9.05;89.35
49813;BME280;35706;52.100;5.056;2022-11-12T00:53:31;103213.34;;;9.08;89.40
49813;BME280;35706;52.100;5.056;2022-11-12T00:54:32;103210.72;;;9.08;89.24
49813;BME280;35706;52.100;5.056;2022-11-12T00:55:32;103217.00;;;9.04;89.61
49813;BME280;35706;52.100;5.056;2022-11-12T00:56:33;103207.50;;;9.01;89.51
49813;BME280;35706;52.100;5.056;2022-11-12T00:57:33;103206.09;;;8.94;89.72
49813;BME280;35706;52.100;5.056;2022-11-12T00:58:35;103202.78;;;8.89;89.96
49813;BME280;35706;52.100;5.056;2022-11-12T00:59:35;103212.84;;;9.00;89.74
49813;BME280;35706;52.100;5.056;2022-11-12T01:00:35;103204.09;;;8.99;89.54
49813;BME280;35706;52.100;5.056;2022-11-12T01:01:36;103210.06;;;9.03;89.45
49813;BME280;35706;52.100;5.056;2022-11-12T01:02:36;103215.31;;;9.03;89.61
49813;BME280;35706;52.100;5.056;2022-11-12T01:03:37;103215.66;;;8.95;89.60
49813;BME280;35706;52.100;5.056;2022-11-12T01:04:38;103204.97;;;9.00;89.52
49813;BME280;35706;52.100;5.056;2022-11-12T01:05:38;103205.75;;;9.02;89.34
49813;BME280;35706;52.100;5.056;2022-11-12T01:06:39;103208.81;;;9.11;89.11
49813;BME280;35706;52.100;5.056;2022-11-12T01:07:40;103208.03;;;9.09;88.69
49813;BME280;35706;52.100;5.056;2022-11-12T01:08:41;103214.31;;;9.05;88.97
49813;BME280;35706;52.100;5.056;2022-11-12T01:09:42;103209.28;;;9.01;89.22
49813;BME280;35706;52.100;5.056;2022-11-12T01:10:42;103203.41;;;8.75;90.20
49813;BME280;35706;52.100;5.056;2022-11-12T01:11:42;103215.09;;;8.68;90.67
49813;BME280;35706;52.100;5.056;2022-11-12T01:12:43;103205.19;;;8.74;90.71
49813;BME280;35706;52.100;5.056;2022-11-12T01:13:45;103210.75;;;8.87;89.97
49813;BME280;35706;52.100;5.056;2022-11-12T01:14:46;103206.63;;;8.82;90.15
49813;BME280;35706;52.100;5.056;2022-11-12T01:15:49;103212.66;;;8.84;90.23
49813;BME280;35706;52.100;5.056;2022-11-12T01:16:49;103206.78;;;8.79;90.21
49813;BME280;35706;52.100;5.056;2022-11-12T01:17:49;103216.63;;;8.92;89.65
49813;BME280;35706;52.100;5.056;2022-11-12T01:18:55;103208.78;;;8.92;89.40
49813;BME280;35706;52.100;5.056;2022-11-12T01:19:55;103208.56;;;8.97;89.11
49813;BME280;35706;52.100;5.056;2022-11-12T01:20:59;103204.25;;;8.96;89.20
49813;BME280;35706;52.100;5.056;2022-11-12T01:21:59;103206.22;;;8.91;89.30
49813;BME280;35706;52.100;5.056;2022-11-12T01:22:59;103214.00;;;8.92;89.30
49813;BME280;35706;52.100;5.056;2022-11-12T01:24:03;103207.66;;;8.98;89.18
49813;BME280;35706;52.100;5.056;2022-11-12T01:25:03;103207.59;;;9.00;89.07
49813;BME280;35706;52.100;5.056;2022-11-12T01:26:05;103204.72;;;8.85;89.68
49813;BME280;35706;52.100;5.056;2022-11-12T01:27:06;103204.56;;;8.88;89.79
49813;BME280;35706;52.100;5.056;2022-11-12T01:28:06;103209.13;;;8.85;89.92
49813;BME280;35706;52.100;5.056;2022-11-12T01:29:06;103212.44;;;8.88;89.72
49813;BME280;35706;52.100;5.056;2022-11-12T01:30:07;103211.22;;;8.76;89.94
49813;BME280;35706;52.100;5.056;2022-11-12T01:32:24;103208.00;;;8.90;89.52
49813;BME280;35706;52.100;5.056;2022-11-12T01:33:26;103209.13;;;8.85;89.74
49813;BME280;35706;52.100;5.056;2022-11-12T01:34:27;103211.81;;;8.83;89.79
49813;BME280;35706;52.100;5.056;2022-11-12T01:35:27;103209.25;;;8.82;89.91
49813;BME280;35706;52.100;5.056;2022-11-12T01:36:31;103220.66;;;8.60;91.06
49813;BME280;35706;52.100;5.056;2022-11-12T01:37:32;103215.25;;;8.63;91.06
49813;BME280;35706;52.100;5.056;2022-11-12T01:38:36;103215.03;;;8.49;91.30
49813;BME280;35706;52.100;5.056;2022-11-12T01:39:37;103217.81;;;8.44;91.90
49813;BME280;35706;52.100;5.056;2022-11-12T01:40:37;103218.50;;;8.49;91.72
49813;BME280;35706;52.100;5.056;2022-11-12T01:41:39;103221.75;;;8.54;91.63
49813;BME280;35706;52.100;5.056;2022-11-12T01:42:42;103215.47;;;8.59;91.59
49813;BME280;35706;52.100;5.056;2022-11-12T01:43:43;103215.03;;;8.49;91.86
49813;BME280;35706;52.100;5.056;2022-11-12T01:44:44;103208.66;;;8.54;91.78
49813;BME280;35706;52.100;5.056;2022-11-12T01:45:48;103218.69;;;8.65;91.03
49813;BME280;35706;52.100;5.056;2022-11-12T01:47:53;103210.44;;;8.74;90.72
49813;BME280;35706;52.100;5.056;2022-11-12T01:49:01;103212.13;;;8.55;91.24
49813;BME280;35706;52.100;5.056;2022-11-12T01:50:34;103203.22;;;8.59;91.26
49813;BME280;35706;52.100;5.056;2022-11-12T01:51:43;103207.09;;;8.71;91.00
49813;BME280;35706;52.100;5.056;2022-11-12T01:52:47;103206.56;;;8.63;91.30
49813;BME280;35706;52.100;5.056;2022-11-12T01:53:53;103213.38;;;8.67;91.33
49813;BME280;35706;52.100;5.056;2022-11-12T01:56:26;103205.78;;;8.61;91.26
49813;BME280;35706;52.100;5.056;2022-11-12T01:57:32;103212.59;;;8.65;91.05
49813;BME280;35706;52.100;5.056;2022-11-12T01:58:37;103217.84;;;8.65;90.99
49813;BME280;35706;52.100;5.056;2022-11-12T01:59:44;103207.81;;;8.54;91.29
49813;BME280;35706;52.100;5.056;2022-11-12T02:00:46;103215.72;;;8.52;91.70
49813;BME280;35706;52.100;5.056;2022-11-12T02:01:47;103213.56;;;8.40;92.43
49813;BME280;35706;52.100;5.056;2022-11-12T02:02:53;103221.09;;;8.49;92.16
49813;BME280;35706;52.100;5.056;2022-11-12T02:03:55;103220.75;;;8.57;91.87
49813;BME280;35706;52.100;5.056;2022-11-12T02:04:56;103212.13;;;8.55;92.02
49813;BME280;35706;52.100;5.056;2022-11-12T02:06:07;103215.22;;;8.65;91.65
49813;BME280;35706;52.100;5.056;2022-11-12T02:07:09;103209.72;;;8.71;91.47
49813;BME280;35706;52.100;5.056;2022-11-12T02:08:11;103210.38;;;8.55;91.81
49813;BME280;35706;52.100;5.056;2022-11-12T02:09:12;103213.44;;;8.45;92.58
49813;BME280;35706;52.100;5.056;2022-11-12T02:10:13;103212.25;;;8.52;92.31
49813;BME280;35706;52.100;5.056;2022-11-12T02:11:16;103213.63;;;8.61;92.01
49813;BME280;35706;52.100;5.056;2022-11-12T02:12:17;103224.53;;;8.51;92.40
49813;BME280;35706;52.100;5.056;2022-11-12T02:13:36;103214.63;;;8.58;92.09
49813;BME280;35706;52.100;5.056;2022-11-12T02:14:55;103214.94;;;8.50;92.28
49813;BME280;35706;52.100;5.056;2022-11-12T02:15:55;103223.00;;;8.46;92.58
49813;BME280;35706;52.100;5.056;2022-11-12T02:16:57;103211.06;;;8.59;92.13
49813;BME280;35706;52.100;5.056;2022-11-12T02:17:57;103213.97;;;8.53;92.77
49813;BME280;35706;52.100;5.056;2022-11-12T02:18:58;103209.16;;;8.42;93.10
49813;BME280;35706;52.100;5.056;2022-11-12T02:20:01;103213.56;;;8.62;92.31
49813;BME280;35706;52.100;5.056;2022-11-12T02:21:07;103205.59;;;8.45;92.86
49813;BME280;35706;52.100;5.056;2022-11-12T02:22:07;103204.41;;;8.30;93.68
49813;BME280;35706;52.100;5.056;2022-11-12T02:23:08;103200.03;;;8.30;93.78
49813;BME280;35706;52.100;5.056;2022-11-12T02:25:14;103201.25;;;8.44;93.33
49813;BME280;35706;52.100;5.056;2022-11-12T02:26:18;103204.66;;;8.46;93.33
49813;BME280;35706;52.100;5.056;2022-11-12T02:27:19;103196.00;;;8.44;93.48
49813;BME280;35706;52.100;5.056;2022-11-12T02:28:23;103194.63;;;8.55;92.70
49813;BME280;35706;52.100;5.056;2022-11-12T02:29:23;103190.00;;;8.40;93.31
49813;BME280;35706;52.100;5.056;2022-11-12T02:30:39;103184.81;;;8.18;94.77
49813;BME280;35706;52.100;5.056;2022-11-12T02:31:39;103182.28;;;8.37;93.96
49813;BME280;35706;52.100;5.056;2022-11-12T02:32:40;103179.47;;;8.42;93.91
49813;BME280;35706;52.100;5.056;2022-11-12T02:33:40;103188.34;;;8.60;92.67
49813;BME280;35706;52.100;5.056;2022-11-12T02:34:44;103181.78;;;8.49;92.91
49813;BME280;35706;52.100;5.056;2022-11-12T02:35:44;103171.09;;;8.54;93.05
49813;BME280;35706;52.100;5.056;2022-11-12T02:36:46;103177.13;;;8.56;93.00
49813;BME280;35706;52.100;5.056;2022-11-12T02:37:47;103175.41;;;8.55;93.00
49813;BME280;35706;52.100;5.056;2022-11-12T02:38:47;103175.25;;;8.60;93.00
49813;BME280;35706;52.100;5.056;2022-11-12T02:39:47;103175.09;;;8.63;92.76
49813;BME280;35706;52.100;5.056;2022-11-12T02:40:48;103178.72;;;8.60;93.02
49813;BME280;35706;52.100;5.056;2022-11-12T02:41:51;103179.56;;;8.61;93.03
49813;BME280;35706;52.100;5.056;2022-11-12T02:42:54;103174.38;;;8.59;92.97
49813;BME280;35706;52.100;5.056;2022-11-12T02:44:00;103166.97;;;8.69;92.67
49813;BME280;35706;52.100;5.056;2022-11-12T02:45:00;103165.72;;;8.77;92.04
49813;BME280;35706;52.100;5.056;2022-11-12T02:46:00;103164.97;;;8.74;91.92
49813;BME280;35706;52.100;5.056;2022-11-12T02:47:01;103168.03;;;8.65;92.50
49813;BME280;35706;52.100;5.056;2022-11-12T02:48:01;103171.09;;;8.74;91.80
49813;BME280;35706;52.100;5.056;2022-11-12T02:49:01;103175.78;;;8.68;92.31
49813;BME280;35706;52.100;5.056;2022-11-12T02:50:02;103172.94;;;8.72;92.11
49813;BME280;35706;52.100;5.056;2022-11-12T02:51:09;103170.22;;;8.74;91.87
49813;BME280;35706;52.100;5.056;2022-11-12T02:52:11;103180.66;;;8.75;91.73
49813;BME280;35706;52.100;5.056;2022-11-12T02:53:12;103181.97;;;8.65;92.61
49813;BME280;35706;52.100;5.056;2022-11-12T02:54:12;103180.34;;;8.63;92.57
49813;BME280;35706;52.100;5.056;2022-11-12T02:55:13;103177.72;;;8.63;92.64
49813;BME280;35706;52.100;5.056;2022-11-12T02:56:13;103182.22;;;8.59;92.81
49813;BME280;35706;52.100;5.056;2022-11-12T02:57:13;103184.00;;;8.59;93.14
49813;BME280;35706;52.100;5.056;2022-11-12T02:58:13;103185.53;;;8.64;92.87
49813;BME280;35706;52.100;5.056;2022-11-12T02:59:14;103189.78;;;8.46;94.50
49813;BME280;35706;52.100;5.056;2022-11-12T03:00:14;103187.81;;;8.51;94.42
49813;BME280;35706;52.100;5.056;2022-11-12T03:01:15;103185.47;;;8.45;95.12
49813;BME280;35706;52.100;5.056;2022-11-12T03:02:15;103181.34;;;8.60;94.40
49813;BME280;35706;52.100;5.056;2022-11-12T03:03:16;103189.19;;;8.60;94.17
49813;BME280;35706;52.100;5.056;2022-11-12T03:04:19;103194.63;;;8.55;94.43
49813;BME280;35706;52.100;5.056;2022-11-12T03:05:19;103182.84;;;8.45;94.67
49813;BME280;35706;52.100;5.056;2022-11-12T03:06:22;103184.72;;;8.42;94.93
49813;BME280;35706;52.100;5.056;2022-11-12T03:07:27;103187.81;;;8.51;94.46
49813;BME280;35706;52.100;5.056;2022-11-12T03:08:30;103179.69;;;8.58;93.71
49813;BME280;35706;52.100;5.056;2022-11-12T03:09:30;103186.53;;;8.62;93.47
49813;BME280;35706;52.100;5.056;2022-11-12T03:10:31;103187.56;;;8.58;93.77
49813;BME280;35706;52.100;5.056;2022-11-12T03:11:32;103182.44;;;8.54;93.66
49813;BME280;35706;52.100;5.056;2022-11-12T03:12:32;103188.59;;;8.53;93.92
49813;BME280;35706;52.100;5.056;2022-11-12T03:13:32;103191.88;;;8.59;93.85
49813;BME280;35706;52.100;5.056;2022-11-12T03:14:35;103183.91;;;8.62;93.55
49813;BME280;35706;52.100;5.056;2022-11-12T03:15:36;103190.72;;;8.66;93.31
49813;BME280;35706;52.100;5.056;2022-11-12T03:16:36;103183.16;;;8.58;93.30
49813;BME280;35706;52.100;5.056;2022-11-12T03:17:36;103184.06;;;8.57;93.13
49813;BME280;35706;52.100;5.056;2022-11-12T03:18:37;103190.19;;;8.58;92.99
49813;BME280;35706;52.100;5.056;2022-11-12T03:19:38;103179.81;;;8.54;93.19
49813;BME280;35706;52.100;5.056;2022-11-12T03:20:38;103177.59;;;8.45;93.36
49813;BME280;35706;52.100;5.056;2022-11-12T03:21:38;103179.66;;;8.37;93.85
49813;BME280;35706;52.100;5.056;2022-11-12T03:22:39;103174.03;;;8.46;93.40
49813;BME280;35706;52.100;5.056;2022-11-12T03:23:39;103183.63;;;8.47;93.21
49813;BME280;35706;52.100;5.056;2022-11-12T03:24:39;103174.56;;;8.54;92.86
49813;BME280;35706;52.100;5.056;2022-11-12T03:25:40;103176.66;;;8.46;93.30
49813;BME280;35706;52.100;5.056;2022-11-12T03:26:40;103179.16;;;8.49;93.41
49813;BME280;35706;52.100;5.056;2022-11-12T03:27:40;103189.78;;;8.46;93.68
49813;BME280;35706;52.100;5.056;2022-11-12T03:28:41;103183.13;;;8.38;93.69
49813;BME280;35706;52.100;5.056;2022-11-12T03:29:41;103187.16;;;8.24;94.56
49813;BME280;35706;52.100;5.056;2022-11-12T03:30:42;103187.28;;;8.21;94.88
49813;BME280;35706;52.100;5.056;2022-11-12T03:31:45;103191.13;;;8.34;94.30
49813;BME280;35706;52.100;5.056;2022-11-12T03:32:46;103193.53;;;8.41;94.22
49813;BME280;35706;52.100;5.056;2022-11-12T03:33:46;103198.31;;;8.51;93.68
49813;BME280;35706;52.100;5.056;2022-11-12T03:34:46;103185.31;;;8.48;93.33
49813;BME280;35706;52.100;5.056;2022-11-12T03:35:47;103189.13;;;8.62;92.80
49813;BME280;35706;52.100;5.056;2022-11-12T03:36:47;103181.91;;;8.67;92.33
49813;BME280;35706;52.100;5.056;2022-11-12T03:37:47;103178.25;;;8.50;93.08
49813;BME280;35706;52.100;5.056;2022-11-12T03:38:47;103182.59;;;8.51;93.16
49813;BME280;35706;52.100;5.056;2022-11-12T03:39:51;103180.31;;;8.42;93.33
49813;BME280;35706;52.100;5.056;2022-11-12T03:40:53;103181.06;;;8.66;92.43
49813;BME280;35706;52.100;5.056;2022-11-12T03:41:53;103181.78;;;8.49;92.75
49813;BME280;35706;52.100;5.056;2022-11-12T03:42:54;103181.72;;;8.71;91.98
49813;BME280;35706;52.100;5.056;2022-11-12T03:43:57;103174.56;;;8.54;92.82
49813;BME280;35706;52.100;5.056;2022-11-12T03:44:57;103173.97;;;8.48;93.21
49813;BME280;35706;52.100;5.056;2022-11-12T03:45:58;103170.53;;;8.47;93.49
49813;BME280;35706;52.100;5.056;2022-11-12T03:46:58;103173.88;;;8.51;93.28
49813;BME280;35706;52.100;5.056;2022-11-12T03:48:00;103172.47;;;8.63;92.63
49813;BME280;35706;52.100;5.056;2022-11-12T03:49:01;103173.66;;;8.55;92.79
49813;BME280;35706;52.100;5.056;2022-11-12T03:50:01;103176.41;;;8.52;92.98
49813;BME280;35706;52.100;5.056;2022-11-12T03:51:02;103180.94;;;8.49;93.24
49813;BME280;35706;52.100;5.056;2022-11-12T03:52:02;103178.06;;;8.33;93.75
49813;BME280;35706;52.100;5.056;2022-11-12T03:53:02;103180.59;;;8.36;93.69
49813;BME280;35706;52.100;5.056;2022-11-12T03:54:03;103182.66;;;8.28;94.15
49813;BME280;35706;52.100;5.056;2022-11-12T03:55:06;103181.09;;;8.24;94.32
49813;BME280;35706;52.100;5.056;2022-11-12T03:56:07;103187.28;;;8.43;93.60
49813;BME280;35706;52.100;5.056;2022-11-12T03:57:09;103177.81;;;8.39;93.49
49813;BME280;35706;52.100;5.056;2022-11-12T03:58:10;103177.81;;;8.39;93.74
49813;BME280;35706;52.100;5.056;2022-11-12T03:59:10;103171.66;;;8.40;93.17
49813;BME280;35706;52.100;5.056;2022-11-12T04:00:11;103180.44;;;8.39;93.25
49813;BME280;35706;52.100;5.056;2022-11-12T04:01:12;103179.16;;;8.49;92.74
49813;BME280;35706;52.100;5.056;2022-11-12T04:02:12;103174.47;;;8.35;93.00
49813;BME280;35706;52.100;5.056;2022-11-12T04:03:13;103182.13;;;8.40;92.98
49813;BME280;35706;52.100;5.056;2022-11-12T04:04:13;103178.81;;;8.36;93.18
49813;BME280;35706;52.100;5.056;2022-11-12T04:05:14;103177.03;;;8.37;93.04
49813;BME280;35706;52.100;5.056;2022-11-12T04:06:34;103177.44;;;8.28;93.38
49813;BME280;35706;52.100;5.056;2022-11-12T04:08:17;103176.63;;;8.26;93.30
49813;BME280;35706;52.100;5.056;2022-11-12T04:09:36;103178.38;;;8.25;93.26
49813;BME280;35706;52.100;5.056;2022-11-12T04:10:36;103179.13;;;8.29;93.00
49813;BME280;35706;52.100;5.056;2022-11-12T04:11:37;103177.47;;;8.26;93.02
49813;BME280;35706;52.100;5.056;2022-11-12T04:12:37;103182.38;;;8.13;93.62
49813;BME280;35706;52.100;5.056;2022-11-12T04:13:56;103180.59;;;8.14;93.56
49813;BME280;35706;52.100;5.056;2022-11-12T04:14:59;103191.81;;;8.18;93.42
49813;BME280;35706;52.100;5.056;2022-11-12T04:16:05;103194.38;;;8.19;93.27
49813;BME280;35706;52.100;5.056;2022-11-12T04:17:24;103191.22;;;8.31;92.76
49813;BME280;35706;52.100;5.056;2022-11-12T04:18:44;103192.09;;;8.32;92.52
49813;BME280;35706;52.100;5.056;2022-11-12T04:20:03;103198.13;;;8.34;92.06
49813;BME280;35706;52.100;5.056;2022-11-12T04:21:29;103191.78;;;8.40;91.80
49813;BME280;35706;52.100;5.056;2022-11-12T04:22:49;103188.34;;;8.38;91.69
49813;BME280;35706;52.100;5.056;2022-11-12T04:23:49;103193.41;;;8.22;92.14
49813;BME280;35706;52.100;5.056;2022-11-12T04:24:50;103195.13;;;8.21;92.08
49813;BME280;35706;52.100;5.056;2022-11-12T04:26:09;103186.56;;;8.18;92.26
49813;BME280;35706;52.100;5.056;2022-11-12T04:27:29;103185.59;;;8.20;92.10
49813;BME280;35706;52.100;5.056;2022-11-12T04:28:30;103184.94;;;8.15;92.16
49813;BME280;35706;52.100;5.056;2022-11-12T04:29:33;103185.44;;;8.03;92.68
49813;BME280;35706;52.100;5.056;2022-11-12T04:30:52;103185.28;;;8.06;92.70
49813;BME280;35706;52.100;5.056;2022-11-12T04:31:52;103185.25;;;8.07;92.59
49813;BME280;35706;52.100;5.056;2022-11-12T04:32:53;103182.91;;;8.00;92.62
49813;BME280;35706;52.100;5.056;2022-11-12T04:33:54;103185.34;;;8.04;92.89
49813;BME280;35706;52.100;5.056;2022-11-12T04:34:55;103181.34;;;7.95;93.01
49813;BME280;35706;52.100;5.056;2022-11-12T04:35:55;103182.81;;;8.03;92.65
49813;BME280;35706;52.100;5.056;2022-11-12T04:36:55;103185.50;;;8.01;92.66
49813;BME280;35706;52.100;5.056;2022-11-12T04:37:56;103181.09;;;8.02;92.52
49813;BME280;35706;52.100;5.056;2022-11-12T04:38:56;103190.88;;;7.98;92.83
49813;BME280;35706;52.100;5.056;2022-11-12T04:39:56;103186.56;;;8.18;91.95
49813;BME280;35706;52.100;5.056;2022-11-12T04:41:17;103190.53;;;8.06;92.33
49813;BME280;35706;52.100;5.056;2022-11-12T04:42:35;103184.88;;;7.94;92.57
49813;BME280;35706;52.100;5.056;2022-11-12T04:43:54;103177.94;;;7.93;92.81
49813;BME280;35706;52.100;5.056;2022-11-12T04:45:13;103182.06;;;7.99;92.69
49813;BME280;35706;52.100;5.056;2022-11-12T04:46:14;103180.25;;;8.01;92.19
49813;BME280;35706;52.100;5.056;2022-11-12T04:47:14;103180.44;;;7.97;92.29
49813;BME280;35706;52.100;5.056;2022-11-12T04:48:14;103181.19;;;8.00;92.18
49813;BME280;35706;52.100;5.056;2022-11-12T04:49:15;103181.22;;;7.99;92.17
49813;BME280;35706;52.100;5.056;2022-11-12T04:50:17;103181.00;;;8.05;92.05
49813;BME280;35706;52.100;5.056;2022-11-12T04:51:17;103174.03;;;8.04;91.77
49813;BME280;35706;52.100;5.056;2022-11-12T04:52:36;103173.25;;;8.02;91.91
49813;BME280;35706;52.100;5.056;2022-11-12T04:53:39;103179.34;;;8.02;91.86
49813;BME280;35706;52.100;5.056;2022-11-12T04:54:39;103176.53;;;8.07;91.70
49813;BME280;35706;52.100;5.056;2022-11-12T04:55:40;103176.47;;;8.08;91.57
49813;BME280;35706;52.100;5.056;2022-11-12T04:56:40;103172.19;;;8.06;91.40
49813;BME280;35706;52.100;5.056;2022-11-12T04:57:40;103163.34;;;8.08;91.64
49813;BME280;35706;52.100;5.056;2022-11-12T04:58:40;103168.34;;;8.14;91.15
49813;BME280;35706;52.100;5.056;2022-11-12T04:59:41;103169.59;;;8.06;91.25
49813;BME280;35706;52.100;5.056;2022-11-12T05:00:44;103162.66;;;8.05;91.37
49813;BME280;35706;52.100;5.056;2022-11-12T05:01:44;103158.44;;;8.01;91.67
49813;BME280;35706;52.100;5.056;2022-11-12T05:02:44;103154.06;;;8.01;91.53
49813;BME280;35706;52.100;5.056;2022-11-12T05:03:44;103156.63;;;8.03;91.56
49813;BME280;35706;52.100;5.056;2022-11-12T05:04:45;103146.75;;;8.09;91.13
49813;BME280;35706;52.100;5.056;2022-11-12T05:05:45;103150.16;;;8.11;91.13
49813;BME280;35706;52.100;5.056;2022-11-12T05:06:45;103149.09;;;8.15;90.88
49813;BME280;35706;52.100;5.056;2022-11-12T05:07:51;103146.84;;;8.06;91.19
49813;BME280;35706;52.100;5.056;2022-11-12T05:08:51;103148.88;;;8.00;91.36
49813;BME280;35706;52.100;5.056;2022-11-12T05:09:52;103141.75;;;8.03;91.55
49813;BME280;35706;52.100;5.056;2022-11-12T05:10:55;103147.00;;;8.03;91.64
49813;BME280;35706;52.100;5.056;2022-11-12T05:11:55;103143.53;;;8.03;91.60
49813;BME280;35706;52.100;5.056;2022-11-12T05:12:56;103145.41;;;7.99;91.68
49813;BME280;35706;52.100;5.056;2022-11-12T05:13:57;103145.56;;;7.96;91.81
49813;BME280;35706;52.100;5.056;2022-11-12T05:14:57;103143.81;;;7.95;91.95
49813;BME280;35706;52.100;5.056;2022-11-12T05:15:57;103141.09;;;7.98;91.82
49813;BME280;35706;52.100;5.056;2022-11-12T05:16:57;103144.69;;;7.95;92.12
49813;BME280;35706;52.100;5.056;2022-11-12T05:17:58;103141.75;;;8.03;91.65
49813;BME280;35706;52.100;5.056;2022-11-12T05:18:58;103145.03;;;8.08;91.48
49813;BME280;35706;52.100;5.056;2022-11-12T05:19:58;103139.78;;;8.08;91.21
49813;BME280;35706;52.100;5.056;2022-11-12T05:20:59;103145.03;;;8.08;90.98
49813;BME280;35706;52.100;5.056;2022-11-12T05:22:21;103148.28;;;7.93;91.53
49813;BME280;35706;52.100;5.056;2022-11-12T05:23:22;103150.47;;;8.04;91.46
49813;BME280;35706;52.100;5.056;2022-11-12T05:24:25;103149.59;;;8.03;91.32
49813;BME280;35706;52.100;5.056;2022-11-12T05:25:27;103149.56;;;8.05;91.16
49813;BME280;35706;52.100;5.056;2022-11-12T05:26:28;103147.00;;;8.03;91.14
49813;BME280;35706;52.100;5.056;2022-11-12T05:27:29;103154.06;;;8.01;91.35
49813;BME280;35706;52.100;5.056;2022-11-12T05:28:33;103149.41;;;8.08;91.17
49813;BME280;35706;52.100;5.056;2022-11-12T05:29:33;103146.75;;;8.09;90.99
49813;BME280;35706;52.100;5.056;2022-11-12T05:30:33;103148.88;;;8.00;91.23
49813;BME280;35706;52.100;5.056;2022-11-12T05:31:34;103150.84;;;7.94;91.39
49813;BME280;35706;52.100;5.056;2022-11-12T05:32:34;103152.72;;;7.91;91.56
49813;BME280;35706;52.100;5.056;2022-11-12T05:33:35;103149.75;;;8.00;91.23
49813;BME280;35706;52.100;5.056;2022-11-12T05:34:35;103145.41;;;7.99;91.09
49813;BME280;35706;52.100;5.056;2022-11-12T05:35:35;103149.47;;;8.06;90.88
49813;BME280;35706;52.100;5.056;2022-11-12T05:36:36;103149.75;;;8.00;91.25